sensor_id;sensor_type;location;lat;lon;timestamp;temperature;humidity
16160;DHT22;8185;57.818;15.224;2022-08-01T00:00:36;13.50;98.80
16160;DHT22;8185;57.818;15.224;2022-08-01T00:03:03;13.40;99.20
16160;DHT22;8185;57.818;15.224;2022-08-01T00:05:31;13.30;99.20
16160;DHT22;8185;57.818;15.224;2022-08-01T00:07:58;13.30;99.40
16160;DHT22;8185;57.818;15.224;2022-08-01T00:10:26;13.30;99.60
16160;DHT22;8185;57.818;15.224;2022-08-01T00:12:53;13.20;99.70
16160;DHT22;8185;57.818;15.224;2022-08-01T00:15:21;13.20;99.90
16160;DHT22;8185;57.818;15.224;2022-08-01T00:17:49;13.20;99.90
16160;DHT22;8185;57.818;15.224;2022-08-01T00:20:16;13.30;99.90
16160;DHT22;8185;57.818;15.224;2022-08-01T00:22:43;13.30;99.90
16160;DHT22;8185;57.818;15.224;2022-08-01T00:25:10;13.30;99.90
16160;DHT22;8185;57.818;15.224;2022-08-01T00:27:37;13.30;99.90
16160;DHT22;8185;57.818;15.224;2022-08-01T00:30:05;13.20;99.90
16160;DHT22;8185;57.818;15.224;2022-08-01T00:32:34;13.30;99.90
16160;DHT22;8185;57.818;15.224;2022-08-01T00:35:01;13.30;99.90
16160;DHT22;8185;57.818;15.224;2022-08-01T00:37:28;13.20;99.90
16160;DHT22;8185;57.818;15.224;2022-08-01T00:39:55;13.20;99.90
16160;DHT22;8185;57.818;15.224;2022-08-01T00:42:23;13.10;99.90
16160;DHT22;8185;57.818;15.224;2022-08-01T00:44:50;13.10;99.90
16160;DHT22;8185;57.818;15.224;2022-08-01T00:47:17;13.00;99.90
16160;DHT22;8185;57.818;15.224;2022-08-01T00:49:45;13.00;99.90
16160;DHT22;8185;57.818;15.224;2022-08-01T00:52:13;12.90;99.90
16160;DHT22;8185;57.818;15.224;2022-08-01T00:54:40;12.90;99.90
16160;DHT22;8185;57.818;15.224;2022-08-01T00:57:08;12.80;99.90
16160;DHT22;8185;57.818;15.224;2022-08-01T00:59:36;12.80;99.90
16160;DHT22;8185;57.818;15.224;2022-08-01T01:02:03;12.70;99.90
16160;DHT22;8185;57.818;15.224;2022-08-01T01:04:30;12.70;99.90
16160;DHT22;8185;57.818;15.224;2022-08-01T01:07:03;12.70;99.90
16160;DHT22;8185;57.818;15.224;2022-08-01T01:09:38;12.70;99.90
16160;DHT22;8185;57.818;15.224;2022-08-01T01:12:15;12.60;99.90
16160;DHT22;8185;57.818;15.224;2022-08-01T01:14:51;12.70;99.90
16160;DHT22;8185;57.818;15.224;2022-08-01T01:17:24;12.80;99.90
16160;DHT22;8185;57.818;15.224;2022-08-01T01:19:55;12.90;99.90
16160;DHT22;8185;57.818;15.224;2022-08-01T01:22:42;13.00;99.90
16160;DHT22;8185;57.818;15.224;2022-08-01T01:25:45;13.00;99.90
16160;DHT22;8185;57.818;15.224;2022-08-01T01:28:20;13.00;99.90
16160;DHT22;8185;57.818;15.224;2022-08-01T01:30:52;13.00;99.90
16160;DHT22;8185;57.818;15.224;2022-08-01T01:33:22;13.00;99.90
16160;DHT22;8185;57.818;15.224;2022-08-01T01:36:09;13.00;99.90
16160;DHT22;8185;57.818;15.224;2022-08-01T01:38:40;13.00;99.90
16160;DHT22;8185;57.818;15.224;2022-08-01T01:41:09;13.00;99.90
16160;DHT22;8185;57.818;15.224;2022-08-01T01:43:40;13.00;99.90
16160;DHT22;8185;57.818;15.224;2022-08-01T01:46:10;13.00;99.90
16160;DHT22;8185;57.818;15.224;2022-08-01T01:48:38;13.10;99.90
16160;DHT22;8185;57.818;15.224;2022-08-01T01:51:07;13.10;99.90
16160;DHT22;8185;57.818;15.224;2022-08-01T01:53:36;13.10;99.90
16160;DHT22;8185;57.818;15.224;2022-08-01T01:56:03;13.00;99.90
16160;DHT22;8185;57.818;15.224;2022-08-01T01:58:32;13.00;99.90
16160;DHT22;8185;57.818;15.224;2022-08-01T02:01:01;13.00;99.90
16160;DHT22;8185;57.818;15.224;2022-08-01T02:03:30;13.00;99.90
16160;DHT22;8185;57.818;15.224;2022-08-01T02:05:59;12.90;99.90
16160;DHT22;8185;57.818;15.224;2022-08-01T02:08:29;12.90;99.90
16160;DHT22;8185;57.818;15.224;2022-08-01T02:10:59;13.00;99.90
16160;DHT22;8185;57.818;15.224;2022-08-01T02:13:51;13.00;99.90
16160;DHT22;8185;57.818;15.224;2022-08-01T02:16:20;13.00;99.90
16160;DHT22;8185;57.818;15.224;2022-08-01T02:18:49;12.90;99.90
16160;DHT22;8185;57.818;15.224;2022-08-01T02:21:23;13.00;99.90
16160;DHT22;8185;57.818;15.224;2022-08-01T02:23:52;13.00;99.90
16160;DHT22;8185;57.818;15.224;2022-08-01T02:26:23;13.10;99.90
16160;DHT22;8185;57.818;15.224;2022-08-01T02:28:54;13.20;99.90
16160;DHT22;8185;57.818;15.224;2022-08-01T02:31:23;13.30;99.90
16160;DHT22;8185;57.818;15.224;2022-08-01T02:33:56;13.30;99.90
16160;DHT22;8185;57.818;15.224;2022-08-01T02:36:26;13.30;99.90
16160;DHT22;8185;57.818;15.224;2022-08-01T02:38:55;13.30;99.90
16160;DHT22;8185;57.818;15.224;2022-08-01T02:41:26;13.30;99.90
16160;DHT22;8185;57.818;15.224;2022-08-01T02:43:58;13.30;99.90
16160;DHT22;8185;57.818;15.224;2022-08-01T02:46:31;13.30;99.90
16160;DHT22;8185;57.818;15.224;2022-08-01T02:49:03;13.40;99.90
16160;DHT22;8185;57.818;15.224;2022-08-01T02:51:32;13.40;99.90
16160;DHT22;8185;57.818;15.224;2022-08-01T02:54:01;13.40;99.90
16160;DHT22;8185;57.818;15.224;2022-08-01T02:56:29;13.40;99.90
16160;DHT22;8185;57.818;15.224;2022-08-01T02:59:04;13.40;99.90
16160;DHT22;8185;57.818;15.224;2022-08-01T03:01:33;13.40;99.90
16160;DHT22;8185;57.818;15.224;2022-08-01T03:04:03;13.40;99.90
16160;DHT22;8185;57.818;15.224;2022-08-01T03:06:32;13.50;99.90
16160;DHT22;8185;57.818;15.224;2022-08-01T03:09:01;13.40;99.90
16160;DHT22;8185;57.818;15.224;2022-08-01T03:11:30;13.40;99.90
16160;DHT22;8185;57.818;15.224;2022-08-01T03:13:58;13.50;99.90
16160;DHT22;8185;57.818;15.224;2022-08-01T03:16:28;13.40;99.90
16160;DHT22;8185;57.818;15.224;2022-08-01T03:19:02;13.40;99.90
16160;DHT22;8185;57.818;15.224;2022-08-01T03:21:31;13.40;99.90
16160;DHT22;8185;57.818;15.224;2022-08-01T03:24:01;13.40;99.90
16160;DHT22;8185;57.818;15.224;2022-08-01T03:26:33;13.40;99.90
16160;DHT22;8185;57.818;15.224;2022-08-01T03:29:04;13.40;99.90
16160;DHT22;8185;57.818;15.224;2022-08-01T03:31:34;13.40;99.90
16160;DHT22;8185;57.818;15.224;2022-08-01T03:34:04;13.40;99.90
16160;DHT22;8185;57.818;15.224;2022-08-01T03:36:33;13.40;99.90
16160;DHT22;8185;57.818;15.224;2022-08-01T03:39:03;13.50;99.90
16160;DHT22;8185;57.818;15.224;2022-08-01T03:41:37;13.50;99.90
16160;DHT22;8185;57.818;15.224;2022-08-01T03:44:10;13.50;99.90
16160;DHT22;8185;57.818;15.224;2022-08-01T03:46:42;13.50;99.90
16160;DHT22;8185;57.818;15.224;2022-08-01T03:49:16;13.60;99.90
16160;DHT22;8185;57.818;15.224;2022-08-01T03:51:48;13.60;99.90
16160;DHT22;8185;57.818;15.224;2022-08-01T03:54:20;13.60;99.90
16160;DHT22;8185;57.818;15.224;2022-08-01T03:56:48;13.60;99.90
16160;DHT22;8185;57.818;15.224;2022-08-01T03:59:17;13.60;99.90
16160;DHT22;8185;57.818;15.224;2022-08-01T04:01:45;13.60;99.90
16160;DHT22;8185;57.818;15.224;2022-08-01T04:04:14;13.70;99.90
16160;DHT22;8185;57.818;15.224;2022-08-01T04:06:42;13.70;99.90
16160;DHT22;8185;57.818;15.224;2022-08-01T04:09:11;13.70;99.90
16160;DHT22;8185;57.818;15.224;2022-08-01T04:11:39;13.70;99.90
16160;DHT22;8185;57.818;15.224;2022-08-01T04:14:06;13.70;99.90
16160;DHT22;8185;57.818;15.224;2022-08-01T04:16:33;13.80;99.90
16160;DHT22;8185;57.818;15.224;2022-08-01T04:19:01;13.80;99.90
16160;DHT22;8185;57.818;15.224;2022-08-01T04:21:32;13.80;99.90
16160;DHT22;8185;57.818;15.224;2022-08-01T04:24:05;13.80;99.90
16160;DHT22;8185;57.818;15.224;2022-08-01T04:26:35;13.80;99.90
16160;DHT22;8185;57.818;15.224;2022-08-01T04:29:04;13.90;99.90
16160;DHT22;8185;57.818;15.224;2022-08-01T04:31:33;13.90;99.90
16160;DHT22;8185;57.818;15.224;2022-08-01T04:34:02;14.00;99.90
16160;DHT22;8185;57.818;15.224;2022-08-01T04:36:33;14.00;99.90
16160;DHT22;8185;57.818;15.224;2022-08-01T04:39:01;14.00;99.90
16160;DHT22;8185;57.818;15.224;2022-08-01T04:41:30;14.10;99.90
16160;DHT22;8185;57.818;15.224;2022-08-01T04:43:58;14.10;99.90
16160;DHT22;8185;57.818;15.224;2022-08-01T04:46:27;14.20;99.90
16160;DHT22;8185;57.818;15.224;2022-08-01T04:48:56;14.20;99.90
16160;DHT22;8185;57.818;15.224;2022-08-01T04:51:23;14.30;99.90
16160;DHT22;8185;57.818;15.224;2022-08-01T04:53:52;14.30;99.90
16160;DHT22;8185;57.818;15.224;2022-08-01T04:56:20;14.30;99.90
16160;DHT22;8185;57.818;15.224;2022-08-01T04:58:48;14.30;99.90
16160;DHT22;8185;57.818;15.224;2022-08-01T05:01:35;14.30;99.90
16160;DHT22;8185;57.818;15.224;2022-08-01T05:04:02;14.30;99.90
16160;DHT22;8185;57.818;15.224;2022-08-01T05:06:29;14.40;99.90
16160;DHT22;8185;57.818;15.224;2022-08-01T05:08:58;14.40;99.90
16160;DHT22;8185;57.818;15.224;2022-08-01T05:11:25;14.50;99.90
16160;DHT22;8185;57.818;15.224;2022-08-01T05:13:52;14.50;99.90
16160;DHT22;8185;57.818;15.224;2022-08-01T05:16:20;14.60;99.90
16160;DHT22;8185;57.818;15.224;2022-08-01T05:18:47;14.60;99.90
16160;DHT22;8185;57.818;15.224;2022-08-01T05:21:14;14.60;99.90
16160;DHT22;8185;57.818;15.224;2022-08-01T05:23:41;14.50;99.90
16160;DHT22;8185;57.818;15.224;2022-08-01T05:26:10;14.50;99.90
16160;DHT22;8185;57.818;15.224;2022-08-01T05:28:39;14.50;99.90
16160;DHT22;8185;57.818;15.224;2022-08-01T05:31:06;14.40;99.90
16160;DHT22;8185;57.818;15.224;2022-08-01T05:33:34;14.50;99.90
16160;DHT22;8185;57.818;15.224;2022-08-01T05:36:01;14.40;99.90
16160;DHT22;8185;57.818;15.224;2022-08-01T05:38:28;14.40;99.90
16160;DHT22;8185;57.818;15.224;2022-08-01T05:40:55;14.50;99.90
16160;DHT22;8185;57.818;15.224;2022-08-01T05:43:24;14.60;99.90
16160;DHT22;8185;57.818;15.224;2022-08-01T05:45:51;14.60;99.90
16160;DHT22;8185;57.818;15.224;2022-08-01T05:48:19;14.70;99.90
16160;DHT22;8185;57.818;15.224;2022-08-01T05:50:46;14.80;99.90
16160;DHT22;8185;57.818;15.224;2022-08-01T05:53:13;14.90;99.90
16160;DHT22;8185;57.818;15.224;2022-08-01T05:55:41;14.90;99.90
16160;DHT22;8185;57.818;15.224;2022-08-01T05:58:08;14.90;99.90
16160;DHT22;8185;57.818;15.224;2022-08-01T06:00:37;15.00;99.90
16160;DHT22;8185;57.818;15.224;2022-08-01T06:03:04;15.10;99.90
16160;DHT22;8185;57.818;15.224;2022-08-01T06:05:31;15.30;99.90
16160;DHT22;8185;57.818;15.224;2022-08-01T06:07:58;15.30;99.90
16160;DHT22;8185;57.818;15.224;2022-08-01T06:10:25;15.50;99.90
16160;DHT22;8185;57.818;15.224;2022-08-01T06:12:52;15.60;99.90
16160;DHT22;8185;57.818;15.224;2022-08-01T06:15:20;15.60;99.90
16160;DHT22;8185;57.818;15.224;2022-08-01T06:17:48;15.80;99.90
16160;DHT22;8185;57.818;15.224;2022-08-01T06:20:15;15.90;99.90
16160;DHT22;8185;57.818;15.224;2022-08-01T06:22:43;15.90;99.90
16160;DHT22;8185;57.818;15.224;2022-08-01T06:25:10;15.90;99.90
16160;DHT22;8185;57.818;15.224;2022-08-01T06:27:37;16.20;99.90
16160;DHT22;8185;57.818;15.224;2022-08-01T06:30:05;16.40;99.90
16160;DHT22;8185;57.818;15.224;2022-08-01T06:32:33;16.60;99.90
16160;DHT22;8185;57.818;15.224;2022-08-01T06:35:02;16.80;99.90
16160;DHT22;8185;57.818;15.224;2022-08-01T06:37:30;16.90;99.90
16160;DHT22;8185;57.818;15.224;2022-08-01T06:40:00;16.90;99.90
16160;DHT22;8185;57.818;15.224;2022-08-01T06:42:28;16.90;99.90
16160;DHT22;8185;57.818;15.224;2022-08-01T06:44:57;17.20;99.90
16160;DHT22;8185;57.818;15.224;2022-08-01T06:47:24;17.10;99.90
16160;DHT22;8185;57.818;15.224;2022-08-01T06:49:51;17.30;99.90
16160;DHT22;8185;57.818;15.224;2022-08-01T06:52:20;17.60;99.90
16160;DHT22;8185;57.818;15.224;2022-08-01T06:54:47;17.60;99.90
16160;DHT22;8185;57.818;15.224;2022-08-01T06:57:14;17.60;99.90
16160;DHT22;8185;57.818;15.224;2022-08-01T06:59:42;17.50;99.90
16160;DHT22;8185;57.818;15.224;2022-08-01T07:02:09;17.70;99.90
16160;DHT22;8185;57.818;15.224;2022-08-01T07:04:36;17.70;99.90
16160;DHT22;8185;57.818;15.224;2022-08-01T07:07:03;17.90;99.90
16160;DHT22;8185;57.818;15.224;2022-08-01T07:09:32;17.80;99.90
16160;DHT22;8185;57.818;15.224;2022-08-01T07:11:59;17.60;99.90
16160;DHT22;8185;57.818;15.224;2022-08-01T07:14:27;17.80;99.90
16160;DHT22;8185;57.818;15.224;2022-08-01T07:16:54;18.10;99.90
16160;DHT22;8185;57.818;15.224;2022-08-01T07:19:21;18.00;99.90
16160;DHT22;8185;57.818;15.224;2022-08-01T07:21:48;18.00;99.90
16160;DHT22;8185;57.818;15.224;2022-08-01T07:24:15;17.80;99.90
16160;DHT22;8185;57.818;15.224;2022-08-01T07:26:47;17.90;99.90
16160;DHT22;8185;57.818;15.224;2022-08-01T07:29:15;18.10;99.90
16160;DHT22;8185;57.818;15.224;2022-08-01T07:31:42;18.20;99.90
16160;DHT22;8185;57.818;15.224;2022-08-01T07:34:09;18.10;99.90
16160;DHT22;8185;57.818;15.224;2022-08-01T07:36:36;18.30;99.90
16160;DHT22;8185;57.818;15.224;2022-08-01T07:39:04;18.30;99.90
16160;DHT22;8185;57.818;15.224;2022-08-01T07:41:31;18.30;99.90
16160;DHT22;8185;57.818;15.224;2022-08-01T07:43:59;18.50;99.90
16160;DHT22;8185;57.818;15.224;2022-08-01T07:46:27;18.70;99.90
16160;DHT22;8185;57.818;15.224;2022-08-01T07:48:56;18.70;99.90
16160;DHT22;8185;57.818;15.224;2022-08-01T07:51:23;19.30;99.90
16160;DHT22;8185;57.818;15.224;2022-08-01T07:53:50;19.30;99.90
16160;DHT22;8185;57.818;15.224;2022-08-01T07:56:17;19.50;99.90
16160;DHT22;8185;57.818;15.224;2022-08-01T07:58:45;19.70;99.90
16160;DHT22;8185;57.818;15.224;2022-08-01T08:01:13;19.80;99.90
16160;DHT22;8185;57.818;15.224;2022-08-01T08:03:40;20.00;99.90
16160;DHT22;8185;57.818;15.224;2022-08-01T08:06:08;20.00;99.90
16160;DHT22;8185;57.818;15.224;2022-08-01T08:08:35;20.20;99.70
16160;DHT22;8185;57.818;15.224;2022-08-01T08:11:02;20.20;99.80
16160;DHT22;8185;57.818;15.224;2022-08-01T08:13:29;20.40;99.70
16160;DHT22;8185;57.818;15.224;2022-08-01T08:15:56;20.40;99.10
16160;DHT22;8185;57.818;15.224;2022-08-01T08:18:26;20.30;99.10
16160;DHT22;8185;57.818;15.224;2022-08-01T08:20:53;20.20;98.80
16160;DHT22;8185;57.818;15.224;2022-08-01T08:23:21;19.90;98.40
16160;DHT22;8185;57.818;15.224;2022-08-01T08:26:05;20.00;98.40
16160;DHT22;8185;57.818;15.224;2022-08-01T08:28:33;19.90;98.50
16160;DHT22;8185;57.818;15.224;2022-08-01T08:31:00;19.80;98.70
16160;DHT22;8185;57.818;15.224;2022-08-01T08:33:28;19.90;99.40
16160;DHT22;8185;57.818;15.224;2022-08-01T08:35:56;19.60;99.90
16160;DHT22;8185;57.818;15.224;2022-08-01T08:38:23;19.90;99.90
16160;DHT22;8185;57.818;15.224;2022-08-01T08:40:53;19.50;99.90
16160;DHT22;8185;57.818;15.224;2022-08-01T08:43:20;19.20;99.90
16160;DHT22;8185;57.818;15.224;2022-08-01T08:45:48;19.20;99.90
16160;DHT22;8185;57.818;15.224;2022-08-01T08:48:16;19.30;99.90
16160;DHT22;8185;57.818;15.224;2022-08-01T08:50:45;19.30;99.90
16160;DHT22;8185;57.818;15.224;2022-08-01T08:53:13;19.30;99.90
16160;DHT22;8185;57.818;15.224;2022-08-01T08:55:42;19.20;99.90
16160;DHT22;8185;57.818;15.224;2022-08-01T08:58:11;19.20;99.90
16160;DHT22;8185;57.818;15.224;2022-08-01T09:00:39;19.50;99.90
16160;DHT22;8185;57.818;15.224;2022-08-01T09:03:07;19.70;99.90
16160;DHT22;8185;57.818;15.224;2022-08-01T09:05:34;19.60;99.90
16160;DHT22;8185;57.818;15.224;2022-08-01T09:08:06;19.80;99.90
16160;DHT22;8185;57.818;15.224;2022-08-01T09:10:33;20.10;99.90
16160;DHT22;8185;57.818;15.224;2022-08-01T09:13:09;20.60;99.90
16160;DHT22;8185;57.818;15.224;2022-08-01T09:15:42;20.90;99.90
16160;DHT22;8185;57.818;15.224;2022-08-01T09:18:26;20.80;99.50
16160;DHT22;8185;57.818;15.224;2022-08-01T09:21:09;20.80;99.90
16160;DHT22;8185;57.818;15.224;2022-08-01T09:23:41;20.80;99.90
16160;DHT22;8185;57.818;15.224;2022-08-01T09:26:10;20.80;99.90
16160;DHT22;8185;57.818;15.224;2022-08-01T09:28:38;20.70;99.90
16160;DHT22;8185;57.818;15.224;2022-08-01T09:31:07;20.40;99.90
16160;DHT22;8185;57.818;15.224;2022-08-01T09:33:52;20.00;99.90
16160;DHT22;8185;57.818;15.224;2022-08-01T09:36:20;19.90;99.90
16160;DHT22;8185;57.818;15.224;2022-08-01T09:38:50;19.80;99.90
16160;DHT22;8185;57.818;15.224;2022-08-01T09:41:19;19.40;99.90
16160;DHT22;8185;57.818;15.224;2022-08-01T09:43:55;19.30;99.90
16160;DHT22;8185;57.818;15.224;2022-08-01T09:46:22;19.00;99.90
16160;DHT22;8185;57.818;15.224;2022-08-01T09:49:00;18.90;99.90
16160;DHT22;8185;57.818;15.224;2022-08-01T09:51:29;18.90;99.90
16160;DHT22;8185;57.818;15.224;2022-08-01T09:53:58;19.10;99.90
16160;DHT22;8185;57.818;15.224;2022-08-01T09:56:25;19.40;99.90
16160;DHT22;8185;57.818;15.224;2022-08-01T09:58:55;19.60;99.90
16160;DHT22;8185;57.818;15.224;2022-08-01T10:01:23;19.80;99.90
16160;DHT22;8185;57.818;15.224;2022-08-01T10:04:09;19.70;99.90
16160;DHT22;8185;57.818;15.224;2022-08-01T10:06:37;19.50;99.90
16160;DHT22;8185;57.818;15.224;2022-08-01T10:09:06;19.50;99.90
16160;DHT22;8185;57.818;15.224;2022-08-01T10:11:34;19.40;99.90
16160;DHT22;8185;57.818;15.224;2022-08-01T10:14:05;19.40;99.90
16160;DHT22;8185;57.818;15.224;2022-08-01T10:16:34;19.60;99.90
16160;DHT22;8185;57.818;15.224;2022-08-01T10:19:03;19.90;99.90
16160;DHT22;8185;57.818;15.224;2022-08-01T10:21:33;19.90;99.90
16160;DHT22;8185;57.818;15.224;2022-08-01T10:24:02;20.10;99.90
16160;DHT22;8185;57.818;15.224;2022-08-01T10:26:33;20.30;99.90
16160;DHT22;8185;57.818;15.224;2022-08-01T10:29:02;20.40;99.90
16160;DHT22;8185;57.818;15.224;2022-08-01T10:31:31;20.70;99.90
16160;DHT22;8185;57.818;15.224;2022-08-01T10:33:59;20.80;99.20
16160;DHT22;8185;57.818;15.224;2022-08-01T10:36:27;21.00;99.70
16160;DHT22;8185;57.818;15.224;2022-08-01T10:38:56;21.20;98.60
16160;DHT22;8185;57.818;15.224;2022-08-01T10:41:24;20.90;97.70
16160;DHT22;8185;57.818;15.224;2022-08-01T10:43:55;21.20;99.00
16160;DHT22;8185;57.818;15.224;2022-08-01T10:46:22;22.00;97.80
16160;DHT22;8185;57.818;15.224;2022-08-01T10:48:56;22.80;96.30
16160;DHT22;8185;57.818;15.224;2022-08-01T10:51:26;23.40;95.30
16160;DHT22;8185;57.818;15.224;2022-08-01T10:53:54;23.80;96.00
16160;DHT22;8185;57.818;15.224;2022-08-01T10:56:23;24.30;95.40
16160;DHT22;8185;57.818;15.224;2022-08-01T10:59:02;23.80;94.60
16160;DHT22;8185;57.818;15.224;2022-08-01T11:01:30;22.90;95.40
16160;DHT22;8185;57.818;15.224;2022-08-01T11:04:07;23.00;96.00
16160;DHT22;8185;57.818;15.224;2022-08-01T11:06:46;23.50;94.90
16160;DHT22;8185;57.818;15.224;2022-08-01T11:09:26;24.50;93.80
16160;DHT22;8185;57.818;15.224;2022-08-01T11:12:02;24.80;93.50
16160;DHT22;8185;57.818;15.224;2022-08-01T11:14:43;24.60;93.30
16160;DHT22;8185;57.818;15.224;2022-08-01T11:17:31;23.50;94.40
16160;DHT22;8185;57.818;15.224;2022-08-01T11:20:10;23.70;94.80
16160;DHT22;8185;57.818;15.224;2022-08-01T11:26:13;23.10;95.00
16160;DHT22;8185;57.818;15.224;2022-08-01T11:28:42;23.00;95.70
16160;DHT22;8185;57.818;15.224;2022-08-01T11:31:31;23.30;95.20
16160;DHT22;8185;57.818;15.224;2022-08-01T11:33:59;23.50;95.80
16160;DHT22;8185;57.818;15.224;2022-08-01T11:36:27;23.30;95.30
16160;DHT22;8185;57.818;15.224;2022-08-01T11:39:21;23.10;95.50
16160;DHT22;8185;57.818;15.224;2022-08-01T11:41:49;22.70;95.90
16160;DHT22;8185;57.818;15.224;2022-08-01T11:44:20;22.20;96.30
16160;DHT22;8185;57.818;15.224;2022-08-01T11:47:00;22.00;96.80
16160;DHT22;8185;57.818;15.224;2022-08-01T11:52:26;22.00;97.50
16160;DHT22;8185;57.818;15.224;2022-08-01T11:54:55;21.80;97.40
16160;DHT22;8185;57.818;15.224;2022-08-01T11:57:24;21.80;97.80
16160;DHT22;8185;57.818;15.224;2022-08-01T11:59:55;21.70;98.60
16160;DHT22;8185;57.818;15.224;2022-08-01T12:02:25;21.60;98.70
16160;DHT22;8185;57.818;15.224;2022-08-01T12:04:55;21.50;98.90
16160;DHT22;8185;57.818;15.224;2022-08-01T12:07:24;21.70;98.70
16160;DHT22;8185;57.818;15.224;2022-08-01T12:09:59;22.20;99.20
16160;DHT22;8185;57.818;15.224;2022-08-01T12:12:28;22.80;97.60
16160;DHT22;8185;57.818;15.224;2022-08-01T12:14:57;23.10;97.50
16160;DHT22;8185;57.818;15.224;2022-08-01T12:17:32;23.10;96.60
16160;DHT22;8185;57.818;15.224;2022-08-01T12:19:59;23.70;97.00
16160;DHT22;8185;57.818;15.224;2022-08-01T12:22:26;23.80;96.30
16160;DHT22;8185;57.818;15.224;2022-08-01T12:24:54;23.70;96.90
16160;DHT22;8185;57.818;15.224;2022-08-01T12:27:25;23.80;96.60
16160;DHT22;8185;57.818;15.224;2022-08-01T12:29:53;23.60;96.30
16160;DHT22;8185;57.818;15.224;2022-08-01T12:32:22;23.40;97.20
16160;DHT22;8185;57.818;15.224;2022-08-01T12:34:52;23.10;96.70
16160;DHT22;8185;57.818;15.224;2022-08-01T12:37:20;22.60;97.20
16160;DHT22;8185;57.818;15.224;2022-08-01T12:39:47;22.80;97.40
16160;DHT22;8185;57.818;15.224;2022-08-01T12:42:15;23.20;98.20
16160;DHT22;8185;57.818;15.224;2022-08-01T12:44:44;23.50;97.00
16160;DHT22;8185;57.818;15.224;2022-08-01T12:47:13;23.60;96.80
16160;DHT22;8185;57.818;15.224;2022-08-01T12:49:42;23.80;97.30
16160;DHT22;8185;57.818;15.224;2022-08-01T12:52:12;23.40;96.70
16160;DHT22;8185;57.818;15.224;2022-08-01T12:55:01;23.50;97.50
16160;DHT22;8185;57.818;15.224;2022-08-01T12:57:28;23.00;96.80
16160;DHT22;8185;57.818;15.224;2022-08-01T13:00:14;23.40;97.20
16160;DHT22;8185;57.818;15.224;2022-08-01T13:02:44;23.80;96.20
16160;DHT22;8185;57.818;15.224;2022-08-01T13:05:12;23.80;96.50
16160;DHT22;8185;57.818;15.224;2022-08-01T13:07:49;22.90;96.00
16160;DHT22;8185;57.818;15.224;2022-08-01T13:10:26;22.70;97.50
16160;DHT22;8185;57.818;15.224;2022-08-01T13:12:56;22.50;97.30
16160;DHT22;8185;57.818;15.224;2022-08-01T13:15:27;22.50;97.20
16160;DHT22;8185;57.818;15.224;2022-08-01T13:17:57;22.30;97.40
16160;DHT22;8185;57.818;15.224;2022-08-01T13:20:33;22.10;98.00
16160;DHT22;8185;57.818;15.224;2022-08-01T13:23:13;21.80;98.30
16160;DHT22;8185;57.818;15.224;2022-08-01T13:25:51;21.60;98.80
16160;DHT22;8185;57.818;15.224;2022-08-01T13:28:20;21.60;99.10
16160;DHT22;8185;57.818;15.224;2022-08-01T13:30:55;21.30;99.20
16160;DHT22;8185;57.818;15.224;2022-08-01T13:33:23;21.30;99.50
16160;DHT22;8185;57.818;15.224;2022-08-01T13:35:51;21.30;99.70
16160;DHT22;8185;57.818;15.224;2022-08-01T13:38:20;21.10;99.90
16160;DHT22;8185;57.818;15.224;2022-08-01T13:41:08;20.90;99.90
16160;DHT22;8185;57.818;15.224;2022-08-01T13:43:35;20.80;99.90
16160;DHT22;8185;57.818;15.224;2022-08-01T13:46:02;20.80;99.90
16160;DHT22;8185;57.818;15.224;2022-08-01T13:48:30;20.80;99.90
16160;DHT22;8185;57.818;15.224;2022-08-01T13:50:58;20.60;99.90
16160;DHT22;8185;57.818;15.224;2022-08-01T13:53:27;20.60;99.90
16160;DHT22;8185;57.818;15.224;2022-08-01T13:55:55;20.70;99.90
16160;DHT22;8185;57.818;15.224;2022-08-01T13:58:22;20.80;99.90
16160;DHT22;8185;57.818;15.224;2022-08-01T14:00:49;21.30;99.90
16160;DHT22;8185;57.818;15.224;2022-08-01T14:03:17;22.30;99.90
16160;DHT22;8185;57.818;15.224;2022-08-01T14:05:44;23.10;99.90
16160;DHT22;8185;57.818;15.224;2022-08-01T14:08:12;23.00;99.90
16160;DHT22;8185;57.818;15.224;2022-08-01T14:10:40;23.70;99.90
16160;DHT22;8185;57.818;15.224;2022-08-01T14:13:08;24.00;98.50
16160;DHT22;8185;57.818;15.224;2022-08-01T14:15:35;24.00;99.10
16160;DHT22;8185;57.818;15.224;2022-08-01T14:18:02;24.60;98.50
16160;DHT22;8185;57.818;15.224;2022-08-01T14:20:30;24.80;96.50
16160;DHT22;8185;57.818;15.224;2022-08-01T14:22:57;23.90;97.00
16160;DHT22;8185;57.818;15.224;2022-08-01T14:25:24;22.50;99.30
16160;DHT22;8185;57.818;15.224;2022-08-01T14:27:53;21.80;99.90
16160;DHT22;8185;57.818;15.224;2022-08-01T14:30:20;22.20;99.90
16160;DHT22;8185;57.818;15.224;2022-08-01T14:32:47;24.20;98.80
16160;DHT22;8185;57.818;15.224;2022-08-01T14:35:15;24.60;97.80
16160;DHT22;8185;57.818;15.224;2022-08-01T14:37:42;25.20;96.50
16160;DHT22;8185;57.818;15.224;2022-08-01T14:40:09;25.90;96.90
16160;DHT22;8185;57.818;15.224;2022-08-01T14:42:37;26.50;95.20
16160;DHT22;8185;57.818;15.224;2022-08-01T14:45:07;26.50;95.50
16160;DHT22;8185;57.818;15.224;2022-08-01T14:47:36;27.10;94.00
16160;DHT22;8185;57.818;15.224;2022-08-01T14:50:05;27.10;94.00
16160;DHT22;8185;57.818;15.224;2022-08-01T14:52:33;26.60;93.50
16160;DHT22;8185;57.818;15.224;2022-08-01T14:55:01;26.30;96.00
16160;DHT22;8185;57.818;15.224;2022-08-01T14:57:29;27.30;94.10
16160;DHT22;8185;57.818;15.224;2022-08-01T14:59:56;27.80;93.30
16160;DHT22;8185;57.818;15.224;2022-08-01T15:02:25;27.30;93.50
16160;DHT22;8185;57.818;15.224;2022-08-01T15:04:52;26.10;93.50
16160;DHT22;8185;57.818;15.224;2022-08-01T15:07:19;26.50;93.80
16160;DHT22;8185;57.818;15.224;2022-08-01T15:09:46;26.70;93.20
16160;DHT22;8185;57.818;15.224;2022-08-01T15:12:14;27.20;93.90
16160;DHT22;8185;57.818;15.224;2022-08-01T15:14:41;27.70;93.10
16160;DHT22;8185;57.818;15.224;2022-08-01T15:17:14;27.50;93.00
16160;DHT22;8185;57.818;15.224;2022-08-01T15:19:43;26.00;94.30
16160;DHT22;8185;57.818;15.224;2022-08-01T15:22:11;26.50;94.30
16160;DHT22;8185;57.818;15.224;2022-08-01T15:24:38;26.50;94.00
16160;DHT22;8185;57.818;15.224;2022-08-01T15:27:06;27.20;93.50
16160;DHT22;8185;57.818;15.224;2022-08-01T15:29:33;27.10;93.30
16160;DHT22;8185;57.818;15.224;2022-08-01T15:32:01;28.30;92.60
16160;DHT22;8185;57.818;15.224;2022-08-01T15:34:28;28.60;92.50
16160;DHT22;8185;57.818;15.224;2022-08-01T15:36:57;27.80;91.70
16160;DHT22;8185;57.818;15.224;2022-08-01T15:39:25;28.40;91.50
16160;DHT22;8185;57.818;15.224;2022-08-01T15:41:52;28.60;91.40
16160;DHT22;8185;57.818;15.224;2022-08-01T15:44:19;28.40;90.80
16160;DHT22;8185;57.818;15.224;2022-08-01T15:46:47;27.30;91.70
16160;DHT22;8185;57.818;15.224;2022-08-01T15:49:15;28.30;92.40
16160;DHT22;8185;57.818;15.224;2022-08-01T15:51:42;28.70;90.00